sensor_id;sensor_type;location;lat;lon;timestamp;temperature;humidity
4107;DHT22;21906;50.812;7.132;2023-05-29T00:02:13;18.00;59.10
4107;DHT22;21906;50.812;7.132;2023-05-29T00:04:39;17.90;59.30
4107;DHT22;21906;50.812;7.132;2023-05-29T00:07:05;17.90;59.70
4107;DHT22;21906;50.812;7.132;2023-05-29T00:09:31;17.90;59.80
4107;DHT22;21906;50.812;7.132;2023-05-29T00:11:57;17.80;59.70
4107;DHT22;21906;50.812;7.132;2023-05-29T00:14:24;17.80;60.00
4107;DHT22;21906;50.812;7.132;2023-05-29T00:16:51;17.70;60.20
4107;DHT22;21906;50.812;7.132;2023-05-29T00:19:17;17.60;60.40
4107;DHT22;21906;50.812;7.132;2023-05-29T00:21:45;17.50;60.30
4107;DHT22;21906;50.812;7.132;2023-05-29T00:24:14;17.50;60.60
4107;DHT22;21906;50.812;7.132;2023-05-29T00:26:40;17.50;60.90
4107;DHT22;21906;50.812;7.132;2023-05-29T00:29:06;17.50;61.20
4107;DHT22;21906;50.812;7.132;2023-05-29T00:31:32;17.40;61.20
4107;DHT22;21906;50.812;7.132;2023-05-29T00:33:57;17.40;61.30
4107;DHT22;21906;50.812;7.132;2023-05-29T00:36:23;17.40;61.60
4107;DHT22;21906;50.812;7.132;2023-05-29T00:38:49;17.40;61.80
4107;DHT22;21906;50.812;7.132;2023-05-29T00:41:15;17.20;61.80
4107;DHT22;21906;50.812;7.132;2023-05-29T00:43:41;17.20;61.90
4107;DHT22;21906;50.812;7.132;2023-05-29T00:46:09;17.10;62.10
4107;DHT22;21906;50.812;7.132;2023-05-29T00:48:35;17.10;62.20
4107;DHT22;21906;50.812;7.132;2023-05-29T00:51:01;17.10;62.50
4107;DHT22;21906;50.812;7.132;2023-05-29T00:53:27;17.00;62.50
4107;DHT22;21906;50.812;7.132;2023-05-29T00:55:53;17.00;62.80
4107;DHT22;21906;50.812;7.132;2023-05-29T00:58:20;16.90;63.30
4107;DHT22;21906;50.812;7.132;2023-05-29T01:00:46;16.90;63.50
4107;DHT22;21906;50.812;7.132;2023-05-29T01:03:12;16.80;63.60
4107;DHT22;21906;50.812;7.132;2023-05-29T01:05:42;16.80;63.90
4107;DHT22;21906;50.812;7.132;2023-05-29T01:08:08;16.60;63.90
4107;DHT22;21906;50.812;7.132;2023-05-29T01:10:34;16.70;63.90
4107;DHT22;21906;50.812;7.132;2023-05-29T01:13:17;16.70;63.90
4107;DHT22;21906;50.812;7.132;2023-05-29T01:24:26;16.50;64.60
4107;DHT22;21906;50.812;7.132;2023-05-29T01:27:00;16.50;64.90
4107;DHT22;21906;50.812;7.132;2023-05-29T01:29:28;16.50;65.00
4107;DHT22;21906;50.812;7.132;2023-05-29T01:31:56;16.50;65.10
4107;DHT22;21906;50.812;7.132;2023-05-29T01:34:22;16.40;65.20
4107;DHT22;21906;50.812;7.132;2023-05-29T01:36:48;16.40;64.90
4107;DHT22;21906;50.812;7.132;2023-05-29T01:39:14;16.40;65.40
4107;DHT22;21906;50.812;7.132;2023-05-29T01:41:40;16.40;65.50
4107;DHT22;21906;50.812;7.132;2023-05-29T01:44:08;16.40;65.40
4107;DHT22;21906;50.812;7.132;2023-05-29T01:46:38;16.40;65.50
4107;DHT22;21906;50.812;7.132;2023-05-29T01:49:04;16.10;66.00
4107;DHT22;21906;50.812;7.132;2023-05-29T01:51:30;16.10;66.00
4107;DHT22;21906;50.812;7.132;2023-05-29T01:53:57;16.10;66.40
4107;DHT22;21906;50.812;7.132;2023-05-29T01:56:25;16.00;66.70
4107;DHT22;21906;50.812;7.132;2023-05-29T01:58:53;15.80;67.40
4107;DHT22;21906;50.812;7.132;2023-05-29T02:01:23;15.80;67.30
4107;DHT22;21906;50.812;7.132;2023-05-29T02:03:49;15.80;67.60
4107;DHT22;21906;50.812;7.132;2023-05-29T02:06:16;15.90;67.10
4107;DHT22;21906;50.812;7.132;2023-05-29T02:08:42;15.90;66.70
4107;DHT22;21906;50.812;7.132;2023-05-29T02:11:08;15.90;67.00
4107;DHT22;21906;50.812;7.132;2023-05-29T02:13:34;15.90;66.70
4107;DHT22;21906;50.812;7.132;2023-05-29T02:15:59;15.90;66.80
4107;DHT22;21906;50.812;7.132;2023-05-29T02:18:25;15.90;66.80
4107;DHT22;21906;50.812;7.132;2023-05-29T02:20:51;15.90;67.30
4107;DHT22;21906;50.812;7.132;2023-05-29T02:23:16;15.70;67.50
4107;DHT22;21906;50.812;7.132;2023-05-29T02:25:42;15.80;67.30
4107;DHT22;21906;50.812;7.132;2023-05-29T02:28:08;15.80;67.40
4107;DHT22;21906;50.812;7.132;2023-05-29T02:30:34;15.70;67.40
4107;DHT22;21906;50.812;7.132;2023-05-29T02:33:00;15.70;67.50
4107;DHT22;21906;50.812;7.132;2023-05-29T02:35:26;15.60;67.60
4107;DHT22;21906;50.812;7.132;2023-05-29T02:37:52;15.50;68.20
4107;DHT22;21906;50.812;7.132;2023-05-29T02:40:19;15.40;67.90
4107;DHT22;21906;50.812;7.132;2023-05-29T02:42:45;15.60;67.70
4107;DHT22;21906;50.812;7.132;2023-05-29T02:45:11;15.60;67.30
4107;DHT22;21906;50.812;7.132;2023-05-29T02:47:38;15.60;67.10
4107;DHT22;21906;50.812;7.132;2023-05-29T02:50:04;15.60;67.20
4107;DHT22;21906;50.812;7.132;2023-05-29T02:52:32;15.50;67.00
4107;DHT22;21906;50.812;7.132;2023-05-29T02:54:58;15.40;66.90
4107;DHT22;21906;50.812;7.132;2023-05-29T02:57:24;15.40;67.10
4107;DHT22;21906;50.812;7.132;2023-05-29T02:59:50;15.50;67.10
4107;DHT22;21906;50.812;7.132;2023-05-29T03:02:20;15.50;66.60
4107;DHT22;21906;50.812;7.132;2023-05-29T03:04:45;15.50;66.50
4107;DHT22;21906;50.812;7.132;2023-05-29T03:07:11;15.40;66.60
4107;DHT22;21906;50.812;7.132;2023-05-29T03:09:38;15.30;66.60
4107;DHT22;21906;50.812;7.132;2023-05-29T03:12:04;15.30;66.70
4107;DHT22;21906;50.812;7.132;2023-05-29T03:14:29;15.30;66.50
4107;DHT22;21906;50.812;7.132;2023-05-29T03:16:55;15.40;66.10
4107;DHT22;21906;50.812;7.132;2023-05-29T03:19:21;15.40;66.00
4107;DHT22;21906;50.812;7.132;2023-05-29T03:21:47;15.30;65.90
4107;DHT22;21906;50.812;7.132;2023-05-29T03:24:13;15.20;66.40
4107;DHT22;21906;50.812;7.132;2023-05-29T03:26:41;15.10;66.50
4107;DHT22;21906;50.812;7.132;2023-05-29T03:29:07;15.10;66.40
4107;DHT22;21906;50.812;7.132;2023-05-29T03:31:33;15.00;66.40
4107;DHT22;21906;50.812;7.132;2023-05-29T03:33:59;15.00;66.20
4107;DHT22;21906;50.812;7.132;2023-05-29T03:36:25;15.10;65.80
4107;DHT22;21906;50.812;7.132;2023-05-29T03:38:50;15.00;66.20
4107;DHT22;21906;50.812;7.132;2023-05-29T03:41:16;14.90;66.40
4107;DHT22;21906;50.812;7.132;2023-05-29T03:43:42;15.00;66.20
4107;DHT22;21906;50.812;7.132;2023-05-29T03:46:08;15.00;66.30
4107;DHT22;21906;50.812;7.132;2023-05-29T03:48:34;15.00;66.10
4107;DHT22;21906;50.812;7.132;2023-05-29T03:51:00;14.90;66.50
4107;DHT22;21906;50.812;7.132;2023-05-29T03:53:25;14.80;66.80
4107;DHT22;21906;50.812;7.132;2023-05-29T03:55:51;14.60;67.10
4107;DHT22;21906;50.812;7.132;2023-05-29T03:58:16;14.50;67.40
4107;DHT22;21906;50.812;7.132;2023-05-29T04:00:42;14.60;67.30
4107;DHT22;21906;50.812;7.132;2023-05-29T04:03:08;14.60;67.00
4107;DHT22;21906;50.812;7.132;2023-05-29T04:05:34;14.70;67.00
4107;DHT22;21906;50.812;7.132;2023-05-29T04:08:00;14.80;66.70
4107;DHT22;21906;50.812;7.132;2023-05-29T04:10:26;14.90;66.40
4107;DHT22;21906;50.812;7.132;2023-05-29T04:12:52;14.90;66.50
4107;DHT22;21906;50.812;7.132;2023-05-29T04:15:17;14.80;66.60
4107;DHT22;21906;50.812;7.132;2023-05-29T04:17:43;14.90;66.80
4107;DHT22;21906;50.812;7.132;2023-05-29T04:20:09;14.80;66.70
4107;DHT22;21906;50.812;7.132;2023-05-29T04:22:36;14.90;66.70
4107;DHT22;21906;50.812;7.132;2023-05-29T04:25:02;14.90;66.20
4107;DHT22;21906;50.812;7.132;2023-05-29T04:27:29;14.90;66.10
4107;DHT22;21906;50.812;7.132;2023-05-29T04:29:55;14.90;66.50
4107;DHT22;21906;50.812;7.132;2023-05-29T04:32:21;14.90;66.40
4107;DHT22;21906;50.812;7.132;2023-05-29T04:34:47;14.80;66.40
4107;DHT22;21906;50.812;7.132;2023-05-29T04:37:13;14.90;66.40
4107;DHT22;21906;50.812;7.132;2023-05-29T04:39:39;14.90;66.80
4107;DHT22;21906;50.812;7.132;2023-05-29T04:42:05;14.70;66.90
4107;DHT22;21906;50.812;7.132;2023-05-29T04:44:31;14.70;67.00
4107;DHT22;21906;50.812;7.132;2023-05-29T04:46:56;14.90;66.80
4107;DHT22;21906;50.812;7.132;2023-05-29T04:49:23;14.90;66.30
4107;DHT22;21906;50.812;7.132;2023-05-29T04:51:48;14.90;66.30
4107;DHT22;21906;50.812;7.132;2023-05-29T04:54:18;14.90;66.40
4107;DHT22;21906;50.812;7.132;2023-05-29T04:56:45;14.80;66.70
4107;DHT22;21906;50.812;7.132;2023-05-29T04:59:11;14.90;66.40
4107;DHT22;21906;50.812;7.132;2023-05-29T05:01:37;14.80;66.80
4107;DHT22;21906;50.812;7.132;2023-05-29T05:04:03;14.80;66.70
4107;DHT22;21906;50.812;7.132;2023-05-29T05:06:29;14.90;66.30
4107;DHT22;21906;50.812;7.132;2023-05-29T05:08:54;15.10;65.90
4107;DHT22;21906;50.812;7.132;2023-05-29T05:11:22;15.20;65.60
4107;DHT22;21906;50.812;7.132;2023-05-29T05:13:49;15.10;66.00
4107;DHT22;21906;50.812;7.132;2023-05-29T05:16:15;15.10;66.00
4107;DHT22;21906;50.812;7.132;2023-05-29T05:18:43;15.10;66.00
4107;DHT22;21906;50.812;7.132;2023-05-29T05:21:09;14.90;65.90
4107;DHT22;21906;50.812;7.132;2023-05-29T05:23:36;14.90;66.00
4107;DHT22;21906;50.812;7.132;2023-05-29T05:26:01;15.00;66.20
4107;DHT22;21906;50.812;7.132;2023-05-29T05:28:27;15.00;66.00
4107;DHT22;21906;50.812;7.132;2023-05-29T05:30:52;14.90;66.20
4107;DHT22;21906;50.812;7.132;2023-05-29T05:33:18;15.00;66.00
4107;DHT22;21906;50.812;7.132;2023-05-29T05:35:44;15.00;65.90
4107;DHT22;21906;50.812;7.132;2023-05-29T05:38:09;15.10;66.30
4107;DHT22;21906;50.812;7.132;2023-05-29T05:40:35;15.10;65.90
4107;DHT22;21906;50.812;7.132;2023-05-29T05:43:01;15.20;65.80
4107;DHT22;21906;50.812;7.132;2023-05-29T05:45:26;15.20;64.90
4107;DHT22;21906;50.812;7.132;2023-05-29T05:47:52;15.10;65.70
4107;DHT22;21906;50.812;7.132;2023-05-29T05:50:17;15.00;65.90
4107;DHT22;21906;50.812;7.132;2023-05-29T05:52:43;15.10;65.90
4107;DHT22;21906;50.812;7.132;2023-05-29T05:55:09;15.00;66.30
4107;DHT22;21906;50.812;7.132;2023-05-29T05:57:35;15.20;66.10
4107;DHT22;21906;50.812;7.132;2023-05-29T06:00:05;15.40;65.30
4107;DHT22;21906;50.812;7.132;2023-05-29T06:02:38;15.40;65.30
4107;DHT22;21906;50.812;7.132;2023-05-29T06:05:07;15.40;65.50
4107;DHT22;21906;50.812;7.132;2023-05-29T06:07:33;15.40;65.00
4107;DHT22;21906;50.812;7.132;2023-05-29T06:09:58;15.30;65.00
4107;DHT22;21906;50.812;7.132;2023-05-29T06:12:24;15.30;64.90
4107;DHT22;21906;50.812;7.132;2023-05-29T06:14:50;15.40;65.20
4107;DHT22;21906;50.812;7.132;2023-05-29T06:17:16;15.40;65.70
4107;DHT22;21906;50.812;7.132;2023-05-29T06:19:41;15.50;65.30
4107;DHT22;21906;50.812;7.132;2023-05-29T06:22:07;15.50;64.70
4107;DHT22;21906;50.812;7.132;2023-05-29T06:24:32;15.60;64.80
4107;DHT22;21906;50.812;7.132;2023-05-29T06:26:58;15.70;64.50
4107;DHT22;21906;50.812;7.132;2023-05-29T06:29:24;15.80;64.40
4107;DHT22;21906;50.812;7.132;2023-05-29T06:31:49;15.80;64.40
4107;DHT22;21906;50.812;7.132;2023-05-29T06:34:15;15.90;64.00
4107;DHT22;21906;50.812;7.132;2023-05-29T06:36:41;15.90;63.90
4107;DHT22;21906;50.812;7.132;2023-05-29T06:39:07;15.90;64.10
4107;DHT22;21906;50.812;7.132;2023-05-29T06:41:33;16.00;63.90
4107;DHT22;21906;50.812;7.132;2023-05-29T06:43:58;16.00;63.90
4107;DHT22;21906;50.812;7.132;2023-05-29T06:46:24;16.10;63.60
4107;DHT22;21906;50.812;7.132;2023-05-29T06:48:50;16.10;63.40
4107;DHT22;21906;50.812;7.132;2023-05-29T06:51:16;16.10;63.40
4107;DHT22;21906;50.812;7.132;2023-05-29T06:53:42;16.20;63.80
4107;DHT22;21906;50.812;7.132;2023-05-29T06:56:08;16.20;63.80
4107;DHT22;21906;50.812;7.132;2023-05-29T06:58:34;16.10;63.40
4107;DHT22;21906;50.812;7.132;2023-05-29T07:01:00;16.30;63.50
4107;DHT22;21906;50.812;7.132;2023-05-29T07:03:26;16.40;63.40
4107;DHT22;21906;50.812;7.132;2023-05-29T07:05:52;16.40;63.30
4107;DHT22;21906;50.812;7.132;2023-05-29T07:08:18;16.40;63.60
4107;DHT22;21906;50.812;7.132;2023-05-29T07:10:44;16.40;63.90
4107;DHT22;21906;50.812;7.132;2023-05-29T07:13:10;16.40;63.20
4107;DHT22;21906;50.812;7.132;2023-05-29T07:15:37;16.50;62.90
4107;DHT22;21906;50.812;7.132;2023-05-29T07:18:02;16.40;62.70
4107;DHT22;21906;50.812;7.132;2023-05-29T07:20:28;16.50;63.00
4107;DHT22;21906;50.812;7.132;2023-05-29T07:22:54;16.50;63.30
4107;DHT22;21906;50.812;7.132;2023-05-29T07:25:19;16.70;62.70
4107;DHT22;21906;50.812;7.132;2023-05-29T07:27:45;16.80;62.30
4107;DHT22;21906;50.812;7.132;2023-05-29T07:30:11;16.80;62.60
4107;DHT22;21906;50.812;7.132;2023-05-29T07:32:37;16.60;62.90
4107;DHT22;21906;50.812;7.132;2023-05-29T07:35:03;16.60;62.40
4107;DHT22;21906;50.812;7.132;2023-05-29T07:37:29;16.70;62.80
4107;DHT22;21906;50.812;7.132;2023-05-29T07:39:55;16.90;62.80
4107;DHT22;21906;50.812;7.132;2023-05-29T07:42:21;16.80;62.80
4107;DHT22;21906;50.812;7.132;2023-05-29T07:44:47;16.90;62.60
4107;DHT22;21906;50.812;7.132;2023-05-29T07:47:13;17.10;62.30
4107;DHT22;21906;50.812;7.132;2023-05-29T07:49:39;17.20;62.20
4107;DHT22;21906;50.812;7.132;2023-05-29T07:52:05;17.20;61.90
4107;DHT22;21906;50.812;7.132;2023-05-29T07:54:32;17.10;61.20
4107;DHT22;21906;50.812;7.132;2023-05-29T07:57:01;17.10;63.40
4107;DHT22;21906;50.812;7.132;2023-05-29T07:59:28;17.00;62.50
4107;DHT22;21906;50.812;7.132;2023-05-29T08:01:55;17.10;62.20
4107;DHT22;21906;50.812;7.132;2023-05-29T08:04:24;17.40;61.70
4107;DHT22;21906;50.812;7.132;2023-05-29T08:06:50;17.40;60.90
4107;DHT22;21906;50.812;7.132;2023-05-29T08:09:16;17.50;60.50
4107;DHT22;21906;50.812;7.132;2023-05-29T08:11:43;17.60;61.40
4107;DHT22;21906;50.812;7.132;2023-05-29T08:14:10;17.70;60.70
4107;DHT22;21906;50.812;7.132;2023-05-29T08:16:36;17.70;61.50
4107;DHT22;21906;50.812;7.132;2023-05-29T08:19:02;17.90;60.10
4107;DHT22;21906;50.812;7.132;2023-05-29T08:21:29;17.90;61.10
4107;DHT22;21906;50.812;7.132;2023-05-29T08:23:55;17.80;60.30
4107;DHT22;21906;50.812;7.132;2023-05-29T08:26:20;17.80;60.70
4107;DHT22;21906;50.812;7.132;2023-05-29T08:28:46;17.90;58.90
4107;DHT22;21906;50.812;7.132;2023-05-29T08:31:12;18.00;59.40
4107;DHT22;21906;50.812;7.132;2023-05-29T08:33:37;18.00;59.40
4107;DHT22;21906;50.812;7.132;2023-05-29T08:36:03;18.20;58.60
4107;DHT22;21906;50.812;7.132;2023-05-29T08:38:29;18.20;58.90
4107;DHT22;21906;50.812;7.132;2023-05-29T08:40:56;18.20;59.30
4107;DHT22;21906;50.812;7.132;2023-05-29T08:43:24;18.10;59.00
4107;DHT22;21906;50.812;7.132;2023-05-29T08:45:54;18.20;59.40
4107;DHT22;21906;50.812;7.132;2023-05-29T08:48:24;18.40;59.70
4107;DHT22;21906;50.812;7.132;2023-05-29T08:50:53;18.40;58.40
4107;DHT22;21906;50.812;7.132;2023-05-29T08:53:21;18.40;59.30
4107;DHT22;21906;50.812;7.132;2023-05-29T08:55:47;18.40;60.10
4107;DHT22;21906;50.812;7.132;2023-05-29T08:58:16;18.30;59.00
4107;DHT22;21906;50.812;7.132;2023-05-29T09:00:44;18.40;61.40
4107;DHT22;21906;50.812;7.132;2023-05-29T09:03:11;18.40;58.50
4107;DHT22;21906;50.812;7.132;2023-05-29T09:05:38;18.40;59.20
4107;DHT22;21906;50.812;7.132;2023-05-29T09:08:06;18.50;59.10
4107;DHT22;21906;50.812;7.132;2023-05-29T09:10:33;18.70;58.10
4107;DHT22;21906;50.812;7.132;2023-05-29T09:12:59;18.70;57.30
4107;DHT22;21906;50.812;7.132;2023-05-29T09:15:24;18.80;59.20
4107;DHT22;21906;50.812;7.132;2023-05-29T09:17:52;18.80;56.30
4107;DHT22;21906;50.812;7.132;2023-05-29T09:20:19;18.90;57.90
4107;DHT22;21906;50.812;7.132;2023-05-29T09:23:00;19.00;56.90
4107;DHT22;21906;50.812;7.132;2023-05-29T09:25:31;19.30;57.70
4107;DHT22;21906;50.812;7.132;2023-05-29T09:28:01;19.40;56.70
4107;DHT22;21906;50.812;7.132;2023-05-29T09:32:57;19.50;56.20
4107;DHT22;21906;50.812;7.132;2023-05-29T09:35:23;19.50;58.00
4107;DHT22;21906;50.812;7.132;2023-05-29T09:37:49;19.70;57.30
4107;DHT22;21906;50.812;7.132;2023-05-29T09:40:15;19.70;56.40
4107;DHT22;21906;50.812;7.132;2023-05-29T09:42:41;19.90;58.30
4107;DHT22;21906;50.812;7.132;2023-05-29T09:45:07;19.90;56.90
4107;DHT22;21906;50.812;7.132;2023-05-29T09:47:34;20.00;55.60
4107;DHT22;21906;50.812;7.132;2023-05-29T09:50:00;20.10;57.40
4107;DHT22;21906;50.812;7.132;2023-05-29T09:52:29;20.30;53.90
4107;DHT22;21906;50.812;7.132;2023-05-29T09:54:55;20.40;54.30
4107;DHT22;21906;50.812;7.132;2023-05-29T09:57:23;20.40;54.40
4107;DHT22;21906;50.812;7.132;2023-05-29T09:59:52;20.50;55.70
4107;DHT22;21906;50.812;7.132;2023-05-29T10:02:18;20.60;53.40
4107;DHT22;21906;50.812;7.132;2023-05-29T10:04:44;20.60;54.00
4107;DHT22;21906;50.812;7.132;2023-05-29T10:07:15;20.80;53.60
4107;DHT22;21906;50.812;7.132;2023-05-29T10:09:44;20.90;54.50
4107;DHT22;21906;50.812;7.132;2023-05-29T10:12:12;20.90;52.40
4107;DHT22;21906;50.812;7.132;2023-05-29T10:14:39;20.90;54.20
4107;DHT22;21906;50.812;7.132;2023-05-29T10:17:07;21.00;56.60
4107;DHT22;21906;50.812;7.132;2023-05-29T10:19:36;21.00;54.90
4107;DHT22;21906;50.812;7.132;2023-05-29T10:22:04;21.20;53.40
4107;DHT22;21906;50.812;7.132;2023-05-29T10:24:32;21.30;53.80
4107;DHT22;21906;50.812;7.132;2023-05-29T10:26:58;21.40;52.30
4107;DHT22;21906;50.812;7.132;2023-05-29T10:29:35;21.50;54.80
4107;DHT22;21906;50.812;7.132;2023-05-29T10:35:17;21.40;52.50
4107;DHT22;21906;50.812;7.132;2023-05-29T10:37:52;21.60;51.80
4107;DHT22;21906;50.812;7.132;2023-05-29T10:40:25;21.60;51.20
4107;DHT22;21906;50.812;7.132;2023-05-29T10:42:52;21.70;54.70
4107;DHT22;21906;50.812;7.132;2023-05-29T10:50:51;21.90;52.80
4107;DHT22;21906;50.812;7.132;2023-05-29T10:53:25;22.00;50.90
4107;DHT22;21906;50.812;7.132;2023-05-29T10:55:54;21.90;51.60
4107;DHT22;21906;50.812;7.132;2023-05-29T10:58:21;22.00;52.30
4107;DHT22;21906;50.812;7.132;2023-05-29T11:00:48;21.90;53.00
4107;DHT22;21906;50.812;7.132;2023-05-29T11:03:15;21.90;51.90
4107;DHT22;21906;50.812;7.132;2023-05-29T11:06:06;22.10;51.40
4107;DHT22;21906;50.812;7.132;2023-05-29T11:08:54;22.10;51.90
4107;DHT22;21906;50.812;7.132;2023-05-29T11:11:31;22.20;51.90
4107;DHT22;21906;50.812;7.132;2023-05-29T11:14:01;22.20;52.60
4107;DHT22;21906;50.812;7.132;2023-05-29T11:18:59;22.40;50.90
4107;DHT22;21906;50.812;7.132;2023-05-29T11:21:35;22.40;53.70
4107;DHT22;21906;50.812;7.132;2023-05-29T11:24:03;22.30;50.30
4107;DHT22;21906;50.812;7.132;2023-05-29T11:26:33;22.00;50.50
4107;DHT22;21906;50.812;7.132;2023-05-29T11:29:04;22.10;52.70
4107;DHT22;21906;50.812;7.132;2023-05-29T11:31:32;22.20;55.00
4107;DHT22;21906;50.812;7.132;2023-05-29T11:34:01;22.40;51.60
4107;DHT22;21906;50.812;7.132;2023-05-29T11:36:30;22.60;52.40
4107;DHT22;21906;50.812;7.132;2023-05-29T11:38:56;22.80;52.00
4107;DHT22;21906;50.812;7.132;2023-05-29T11:41:22;22.90;51.70
4107;DHT22;21906;50.812;7.132;2023-05-29T11:44:02;22.80;51.00
4107;DHT22;21906;50.812;7.132;2023-05-29T11:46:28;22.70;50.80
4107;DHT22;21906;50.812;7.132;2023-05-29T11:48:58;22.70;51.20
4107;DHT22;21906;50.812;7.132;2023-05-29T11:51:24;22.90;51.20
4107;DHT22;21906;50.812;7.132;2023-05-29T11:53:50;22.90;50.90
4107;DHT22;21906;50.812;7.132;2023-05-29T11:56:18;22.90;51.90
4107;DHT22;21906;50.812;7.132;2023-05-29T11:58:44;22.90;51.50
4107;DHT22;21906;50.812;7.132;2023-05-29T12:01:11;22.90;50.60
4107;DHT22;21906;50.812;7.132;2023-05-29T12:03:40;23.20;51.50
4107;DHT22;21906;50.812;7.132;2023-05-29T12:06:06;23.30;50.70
4107;DHT22;21906;50.812;7.132;2023-05-29T12:08:33;23.30;49.80
4107;DHT22;21906;50.812;7.132;2023-05-29T12:10:58;23.30;50.50
4107;DHT22;21906;50.812;7.132;2023-05-29T12:13:24;23.40;51.40
4107;DHT22;21906;50.812;7.132;2023-05-29T12:15:54;23.50;50.50
4107;DHT22;21906;50.812;7.132;2023-05-29T12:18:20;23.40;50.20
4107;DHT22;21906;50.812;7.132;2023-05-29T12:20:46;23.40;48.90
4107;DHT22;21906;50.812;7.132;2023-05-29T12:23:12;23.60;49.80
4107;DHT22;21906;50.812;7.132;2023-05-29T12:25:38;23.60;48.90
4107;DHT22;21906;50.812;7.132;2023-05-29T12:28:04;23.50;47.80
4107;DHT22;21906;50.812;7.132;2023-05-29T12:30:30;23.50;50.00
4107;DHT22;21906;50.812;7.132;2023-05-29T12:32:56;23.80;50.10
4107;DHT22;21906;50.812;7.132;2023-05-29T12:35:27;23.70;50.50
4107;DHT22;21906;50.812;7.132;2023-05-29T12:38:04;23.60;48.40
4107;DHT22;21906;50.812;7.132;2023-05-29T12:40:34;23.60;49.70
4107;DHT22;21906;50.812;7.132;2023-05-29T12:43:02;23.80;50.90
4107;DHT22;21906;50.812;7.132;2023-05-29T12:45:32;23.90;47.80
4107;DHT22;21906;50.812;7.132;2023-05-29T12:48:05;24.20;46.90
4107;DHT22;21906;50.812;7.132;2023-05-29T12:50:40;24.40;48.40
4107;DHT22;21906;50.812;7.132;2023-05-29T12:53:10;24.30;47.60
4107;DHT22;21906;50.812;7.132;2023-05-29T12:55:40;24.10;47.10
4107;DHT22;21906;50.812;7.132;2023-05-29T12:58:07;24.00;48.80
4107;DHT22;21906;50.812;7.132;2023-05-29T13:00:41;23.90;48.30
4107;DHT22;21906;50.812;7.132;2023-05-29T13:03:07;23.90;48.80
4107;DHT22;21906;50.812;7.132;2023-05-29T13:05:34;23.90;49.20
4107;DHT22;21906;50.812;7.132;2023-05-29T13:08:00;24.00;47.10
4107;DHT22;21906;50.812;7.132;2023-05-29T13:10:26;24.20;46.70
4107;DHT22;21906;50.812;7.132;2023-05-29T13:12:53;24.30;46.20
4107;DHT22;21906;50.812;7.132;2023-05-29T13:15:21;24.50;47.30
4107;DHT22;21906;50.812;7.132;2023-05-29T13:17:47;24.50;48.60
4107;DHT22;21906;50.812;7.132;2023-05-29T13:20:13;24.30;46.20
4107;DHT22;21906;50.812;7.132;2023-05-29T13:22:40;24.20;46.20
4107;DHT22;21906;50.812;7.132;2023-05-29T13:25:08;24.40;47.30
4107;DHT22;21906;50.812;7.132;2023-05-29T13:27:38;24.50;47.40
4107;DHT22;21906;50.812;7.132;2023-05-29T13:30:05;24.60;47.40
4107;DHT22;21906;50.812;7.132;2023-05-29T13:32:32;24.70;45.30
4107;DHT22;21906;50.812;7.132;2023-05-29T13:34:57;25.00;48.00
4107;DHT22;21906;50.812;7.132;2023-05-29T13:37:24;25.00;42.50
4107;DHT22;21906;50.812;7.132;2023-05-29T13:39:49;24.90;44.80
4107;DHT22;21906;50.812;7.132;2023-05-29T13:42:18;24.70;44.20
4107;DHT22;21906;50.812;7.132;2023-05-29T13:44:44;24.90;46.00
4107;DHT22;21906;50.812;7.132;2023-05-29T13:47:09;25.20;45.30
4107;DHT22;21906;50.812;7.132;2023-05-29T13:49:35;25.30;43.20
4107;DHT22;21906;50.812;7.132;2023-05-29T13:52:02;25.40;43.60
4107;DHT22;21906;50.812;7.132;2023-05-29T13:54:28;25.30;45.30
4107;DHT22;21906;50.812;7.132;2023-05-29T13:56:57;25.20;45.00
4107;DHT22;21906;50.812;7.132;2023-05-29T13:59:23;25.20;44.70
4107;DHT22;21906;50.812;7.132;2023-05-29T14:01:49;25.30;43.90
4107;DHT22;21906;50.812;7.132;2023-05-29T14:04:15;25.10;42.50
4107;DHT22;21906;50.812;7.132;2023-05-29T14:06:41;24.80;44.70
4107;DHT22;21906;50.812;7.132;2023-05-29T14:09:06;24.70;43.80
4107;DHT22;21906;50.812;7.132;2023-05-29T14:11:38;24.70;44.60
4107;DHT22;21906;50.812;7.132;2023-05-29T14:14:04;24.90;45.50
4107;DHT22;21906;50.812;7.132;2023-05-29T14:16:31;25.00;45.20
4107;DHT22;21906;50.812;7.132;2023-05-29T14:18:58;24.90;44.40
4107;DHT22;21906;50.812;7.132;2023-05-29T14:21:23;25.10;43.80
4107;DHT22;21906;50.812;7.132;2023-05-29T14:23:49;25.40;42.60
4107;DHT22;21906;50.812;7.132;2023-05-29T14:26:15;25.50;41.50
4107;DHT22;21906;50.812;7.132;2023-05-29T14:28:41;25.40;41.60
4107;DHT22;21906;50.812;7.132;2023-05-29T14:31:07;25.50;42.60
4107;DHT22;21906;50.812;7.132;2023-05-29T14:33:33;26.00;42.10
4107;DHT22;21906;50.812;7.132;2023-05-29T14:35:58;25.90;41.50
4107;DHT22;21906;50.812;7.132;2023-05-29T14:38:24;25.90;40.10
4107;DHT22;21906;50.812;7.132;2023-05-29T14:40:51;26.40;41.00
4107;DHT22;21906;50.812;7.132;2023-05-29T14:43:17;26.80;38.70
4107;DHT22;21906;50.812;7.132;2023-05-29T14:45:43;27.30;41.10
4107;DHT22;21906;50.812;7.132;2023-05-29T14:48:08;27.70;37.00
4107;DHT22;21906;50.812;7.132;2023-05-29T14:50:35;27.60;36.80
4107;DHT22;21906;50.812;7.132;2023-05-29T14:53:01;27.70;36.70
4107;DHT22;21906;50.812;7.132;2023-05-29T14:55:26;27.50;37.70
4107;DHT22;21906;50.812;7.132;2023-05-29T14:57:52;27.80;36.20
4107;DHT22;21906;50.812;7.132;2023-05-29T15:00:18;28.40;35.10
4107;DHT22;21906;50.812;7.132;2023-05-29T15:02:44;28.00;35.40
4107;DHT22;21906;50.812;7.132;2023-05-29T15:05:09;28.10;37.60
4107;DHT22;21906;50.812;7.132;2023-05-29T15:07:35;28.40;35.80
4107;DHT22;21906;50.812;7.132;2023-05-29T15:10:01;28.90;35.20
4107;DHT22;21906;50.812;7.132;2023-05-29T15:12:28;29.30;34.10
4107;DHT22;21906;50.812;7.132;2023-05-29T15:14:54;29.40;35.10
4107;DHT22;21906;50.812;7.132;2023-05-29T15:17:20;29.90;34.30
4107;DHT22;21906;50.812;7.132;2023-05-29T15:19:46;30.30;33.50
4107;DHT22;21906;50.812;7.132;2023-05-29T15:22:11;29.90;33.00
4107;DHT22;21906;50.812;7.132;2023-05-29T15:24:37;30.70;33.70
4107;DHT22;21906;50.812;7.132;2023-05-29T15:27:03;31.00;31.80
4107;DHT22;21906;50.812;7.132;2023-05-29T15:29:33;31.40;30.20
4107;DHT22;21906;50.812;7.132;2023-05-29T15:31:59;31.30;30.60
4107;DHT22;21906;50.812;7.132;2023-05-29T15:34:25;30.90;30.60
4107;DHT22;21906;50.812;7.132;2023-05-29T15:36:51;31.30;31.40
4107;DHT22;21906;50.812;7.132;2023-05-29T15:39:16;31.70;29.70
4107;DHT22;21906;50.812;7.132;2023-05-29T15:41:42;31.60;30.00
4107;DHT22;21906;50.812;7.132;2023-05-29T15:44:08;31.50;29.90
4107;DHT22;21906;50.812;7.132;2023-05-29T15:46:33;31.30;31.00
4107;DHT22;21906;50.812;7.132;2023-05-29T15:48:59;30.40;30.60
4107;DHT22;21906;50.812;7.132;2023-05-29T15:51:25;30.70;31.00
4107;DHT22;21906;50.812;7.132;2023-05-29T15:53:51;31.10;30.30
4107;DHT22;21906;50.812;7.132;2023-05-29T15:56:16;31.10;30.90
4107;DHT22;21906;50.812;7.132;2023-05-29T15:58:42;31.50;30.10
4107;DHT22;21906;50.812;7.132;2023-05-29T16:01:07;33.40;29.50
4107;DHT22;21906;50.812;7.132;2023-05-29T16:03:33;34.00;26.10
4107;DHT22;21906;50.812;7.132;2023-05-29T16:05:59;33.70;27.20